createdAt,value
2018-10-05T00:01:31.369Z,11.30
2018-10-05T00:04:01.273Z,11.20
2018-10-05T00:06:31.165Z,11.20
2018-10-05T00:09:01.143Z,11.30
2018-10-05T00:11:31.032Z,11.30
2018-10-05T00:14:00.961Z,11.20
2018-10-05T00:16:30.972Z,11.30
2018-10-05T00:19:00.843Z,11.30
2018-10-05T00:21:30.818Z,11.20
2018-10-05T00:24:01.029Z,11.20
2018-10-05T00:26:31.269Z,11.30
2018-10-05T00:29:01.212Z,11.30
2018-10-05T00:31:31.098Z,11.30
2018-10-05T00:34:01.004Z,11.20
2018-10-05T00:36:31.131Z,11.20
2018-10-05T00:39:01.096Z,11.20
2018-10-05T00:41:31.257Z,11.20
2018-10-05T00:44:01.351Z,11.20
2018-10-05T00:49:05.069Z,11.10
2018-10-05T00:51:34.909Z,11.10
2018-10-05T00:54:05.121Z,11.10
2018-10-05T00:56:35.003Z,11.10
2018-10-05T00:59:05.009Z,11.10
2018-10-05T01:01:34.933Z,11.00
2018-10-05T01:04:05.221Z,11.00
2018-10-05T01:06:35.164Z,11.00
2018-10-05T01:09:06.377Z,11.00
2018-10-05T01:11:36.420Z,11.00
2018-10-05T01:14:06.581Z,11.00
2018-10-05T01:16:36.528Z,11.00
2018-10-05T01:19:07.003Z,11.00
2018-10-05T01:21:36.961Z,11.00
2018-10-05T01:24:07.132Z,11.00
2018-10-05T01:26:37.229Z,11.00
2018-10-05T01:29:07.577Z,11.00
2018-10-05T01:31:37.356Z,11.00
2018-10-05T01:34:07.144Z,11.00
2018-10-05T01:36:36.988Z,11.00
2018-10-05T01:39:08.228Z,11.00
2018-10-05T01:41:38.120Z,10.90
2018-10-05T01:44:07.945Z,11.00
2018-10-05T01:46:37.844Z,10.90
2018-10-05T01:49:07.762Z,10.90
2018-10-05T01:51:38.511Z,10.90
2018-10-05T01:54:08.769Z,10.90
2018-10-05T01:56:38.652Z,10.90
2018-10-05T01:59:08.505Z,10.90
2018-10-05T02:01:38.403Z,10.90
2018-10-05T02:04:08.264Z,10.90
2018-10-05T02:06:38.116Z,10.90
2018-10-05T02:09:08.133Z,10.90
2018-10-05T02:11:38.237Z,10.90
2018-10-05T02:14:08.164Z,10.80
2018-10-05T02:16:37.959Z,10.80
2018-10-05T02:19:07.951Z,10.80
2018-10-05T02:21:38.350Z,10.80
2018-10-05T02:24:08.324Z,10.80
2018-10-05T02:26:38.237Z,10.80
2018-10-05T02:29:08.456Z,10.80
2018-10-05T02:31:38.510Z,10.80
2018-10-05T02:34:08.370Z,10.80
2018-10-05T02:36:38.300Z,10.80
2018-10-05T02:39:11.706Z,10.80
2018-10-05T02:41:41.845Z,10.70
2018-10-05T02:44:11.879Z,10.70
2018-10-05T02:46:41.915Z,10.70
2018-10-05T02:49:11.795Z,10.70
2018-10-05T02:51:41.848Z,10.60
2018-10-05T02:54:11.621Z,10.60
2018-10-05T02:56:41.744Z,10.60
2018-10-05T02:59:11.708Z,10.60
2018-10-05T03:02:54.676Z,10.60
2018-10-05T03:05:24.637Z,10.60
2018-10-05T03:07:54.634Z,10.60
2018-10-05T03:10:24.596Z,10.50
2018-10-05T03:12:54.503Z,10.50
2018-10-05T03:15:24.546Z,10.50
2018-10-05T03:17:54.388Z,10.50
2018-10-05T03:20:24.601Z,10.50
2018-10-05T03:22:54.486Z,10.50
2018-10-05T03:25:24.416Z,10.40
2018-10-05T03:27:54.258Z,10.40
2018-10-05T03:30:24.183Z,10.40
2018-10-05T03:32:54.091Z,10.40
2018-10-05T03:35:24.033Z,10.30
2018-10-05T03:37:54.228Z,10.30
2018-10-05T03:40:24.176Z,10.30
2018-10-05T03:42:53.985Z,10.30
2018-10-05T03:45:23.778Z,10.30
2018-10-05T03:47:53.879Z,10.30
2018-10-05T03:50:23.952Z,10.30
2018-10-05T03:52:54.248Z,10.30
2018-10-05T03:55:24.130Z,10.20
2018-10-05T03:57:53.945Z,10.20
2018-10-05T04:00:23.773Z,10.20
2018-10-05T04:02:53.575Z,10.20
2018-10-05T04:05:23.821Z,10.20
2018-10-05T04:07:54.129Z,10.20
2018-10-05T04:10:24.245Z,10.20
2018-10-05T04:12:54.419Z,10.20
2018-10-05T04:15:24.292Z,10.10
2018-10-05T04:17:54.213Z,10.10
2018-10-05T04:20:24.173Z,10.10
2018-10-05T04:22:54.002Z,10.10
2018-10-05T04:25:23.791Z,10.10
2018-10-05T04:27:53.649Z,10.10
2018-10-05T04:30:23.581Z,10.10
2018-10-05T04:32:53.561Z,10.10
2018-10-05T04:35:23.730Z,10.10
2018-10-05T04:37:53.927Z,10.00
2018-10-05T04:40:23.952Z,10.00
2018-10-05T04:42:53.860Z,10.00
2018-10-05T04:45:23.751Z,10.00
2018-10-05T04:47:53.657Z,10.00
2018-10-05T04:50:23.569Z,10.00
2018-10-05T04:52:53.753Z,9.90
2018-10-05T04:55:23.577Z,9.90
2018-10-05T04:57:53.375Z,9.80
2018-10-05T05:00:23.625Z,9.80
2018-10-05T05:02:53.760Z,9.80
2018-10-05T05:05:23.650Z,9.80
2018-10-05T05:07:53.628Z,9.70
2018-10-05T05:10:23.556Z,9.70
2018-10-05T05:12:53.489Z,9.60
2018-10-05T05:15:23.973Z,9.60
2018-10-05T05:17:53.908Z,9.60
2018-10-05T05:20:24.088Z,9.50
2018-10-05T05:22:54.123Z,9.50
2018-10-05T05:25:24.052Z,9.50
2018-10-05T05:27:53.854Z,9.50
2018-10-05T05:30:24.140Z,9.50
2018-10-05T05:32:54.341Z,9.60
2018-10-05T05:35:24.232Z,9.60
2018-10-05T05:37:54.142Z,9.60
2018-10-05T05:40:24.223Z,9.60
2018-10-05T05:42:54.100Z,9.60
2018-10-05T05:45:24.246Z,9.60
2018-10-05T05:47:54.106Z,9.60
2018-10-05T05:50:24.342Z,9.60
2018-10-05T05:52:54.291Z,9.60
2018-10-05T05:55:24.137Z,9.60
2018-10-05T05:57:54.545Z,9.60
2018-10-05T06:00:24.447Z,9.60
2018-10-05T06:02:54.466Z,9.60
2018-10-05T06:05:24.752Z,9.60
2018-10-05T06:07:54.997Z,9.60
2018-10-05T06:10:25.021Z,9.60
2018-10-05T06:12:55.272Z,9.70
2018-10-05T06:15:25.261Z,9.70
2018-10-05T06:17:55.220Z,9.80
2018-10-05T06:20:25.052Z,9.80
2018-10-05T06:22:55.184Z,9.80
2018-10-05T06:25:25.443Z,9.90
2018-10-05T06:27:55.581Z,9.90
2018-10-05T06:30:25.895Z,10.00
2018-10-05T06:32:56.103Z,10.10
2018-10-05T06:35:26.263Z,10.10
2018-10-05T06:37:56.316Z,10.30
2018-10-05T06:40:26.163Z,10.30
2018-10-05T06:42:56.189Z,10.40
2018-10-05T06:45:26.361Z,10.40
2018-10-05T06:47:56.202Z,10.40
2018-10-05T06:50:26.451Z,10.50
2018-10-05T06:52:56.391Z,10.60
2018-10-05T06:55:26.734Z,10.70
2018-10-05T06:57:56.673Z,10.80
2018-10-05T07:00:26.673Z,10.80
2018-10-05T07:02:56.559Z,11.00
2018-10-05T07:05:26.492Z,11.00
2018-10-05T07:07:56.609Z,11.20
2018-10-05T07:10:26.576Z,11.30
2018-10-05T07:12:56.553Z,11.40
2018-10-05T07:15:26.632Z,11.50
2018-10-05T07:17:56.753Z,11.60
2018-10-05T07:20:27.108Z,11.70
2018-10-05T07:22:56.984Z,11.80
2018-10-05T07:25:27.111Z,11.90
2018-10-05T07:27:57.134Z,12.00
2018-10-05T07:30:27.224Z,12.10
2018-10-05T07:32:57.030Z,12.20
2018-10-05T07:35:26.990Z,12.30
2018-10-05T07:37:56.982Z,12.40
2018-10-05T07:40:27.387Z,12.50
2018-10-05T07:42:57.357Z,12.60
2018-10-05T07:45:27.153Z,12.70
2018-10-05T07:47:57.346Z,12.80
2018-10-05T07:50:27.355Z,12.90
2018-10-05T07:52:57.409Z,13.00
2018-10-05T07:55:27.749Z,13.10
2018-10-05T07:57:58.054Z,13.20
2018-10-05T08:00:27.983Z,13.30
2018-10-05T08:02:57.890Z,13.50
2018-10-05T08:05:27.955Z,13.50
2018-10-05T08:07:57.904Z,13.70
2018-10-05T08:10:27.826Z,13.80
2018-10-05T08:12:57.944Z,13.90
2018-10-05T08:15:28.103Z,14.00
2018-10-05T08:17:58.355Z,14.00
2018-10-05T08:20:28.517Z,14.10
2018-10-05T08:22:58.394Z,14.30
2018-10-05T08:25:28.273Z,14.30
2018-10-05T08:27:58.147Z,14.40
2018-10-05T08:30:27.967Z,14.50
2018-10-05T08:32:57.913Z,14.60
2018-10-05T08:35:28.004Z,14.60
2018-10-05T08:37:57.952Z,14.70
2018-10-05T08:40:27.790Z,14.70
2018-10-05T08:42:57.720Z,14.90
2018-10-05T08:45:27.709Z,14.90
2018-10-05T08:47:57.713Z,15.00
2018-10-05T08:50:27.662Z,15.10
2018-10-05T08:52:57.650Z,15.10
2018-10-05T08:55:27.589Z,15.10
2018-10-05T08:57:57.489Z,15.20
2018-10-05T09:00:27.481Z,15.20
2018-10-05T09:02:57.355Z,15.40
2018-10-05T09:05:27.355Z,15.40
2018-10-05T09:07:58.028Z,15.50
2018-10-05T09:10:28.015Z,15.50
2018-10-05T09:12:57.988Z,15.50
2018-10-05T09:15:28.076Z,15.60
2018-10-05T09:17:58.275Z,15.60
2018-10-05T09:20:28.142Z,15.70
2018-10-05T09:22:58.252Z,15.70
2018-10-05T09:25:28.258Z,15.80
2018-10-05T09:27:58.120Z,15.90
2018-10-05T09:30:28.337Z,16.00
2018-10-05T09:32:58.225Z,16.00
2018-10-05T09:35:28.532Z,16.00
2018-10-05T09:37:58.721Z,16.10
2018-10-05T09:40:28.911Z,16.10
2018-10-05T09:42:58.929Z,16.20
2018-10-05T09:45:28.821Z,16.20
2018-10-05T09:47:58.884Z,16.20
2018-10-05T09:50:28.781Z,16.30
2018-10-05T09:52:58.635Z,16.40
2018-10-05T09:55:28.537Z,16.30
2018-10-05T09:57:59.043Z,16.40
2018-10-05T10:00:34.089Z,16.50
2018-10-05T10:03:08.912Z,16.50
2018-10-05T10:05:38.828Z,16.50
2018-10-05T10:08:09.102Z,16.60
2018-10-05T10:10:39.114Z,16.60
2018-10-05T10:13:09.290Z,16.80
2018-10-05T10:15:39.177Z,16.80
2018-10-05T10:18:09.090Z,16.80
2018-10-05T10:20:38.904Z,16.80
2018-10-05T10:23:09.181Z,16.90
2018-10-05T10:25:39.273Z,16.80
2018-10-05T10:28:09.273Z,16.90
2018-10-05T10:30:39.174Z,16.90
2018-10-05T10:33:09.389Z,17.00
2018-10-05T10:35:41.821Z,17.00
2018-10-05T10:38:16.238Z,17.00
2018-10-05T10:40:48.111Z,17.20
2018-10-05T10:43:19.867Z,17.20
2018-10-05T10:45:51.831Z,17.30
2018-10-05T10:48:23.349Z,17.30
2018-10-05T10:50:55.603Z,17.30
2018-10-05T10:53:29.281Z,17.30
2018-10-05T10:56:00.928Z,17.30
2018-10-05T10:58:32.394Z,17.40
2018-10-05T11:01:36.673Z,17.50
2018-10-05T11:04:08.477Z,17.50
2018-10-05T11:06:40.815Z,17.50
2018-10-05T11:09:13.431Z,17.60
2018-10-05T11:11:43.627Z,17.60
2018-10-05T11:14:15.530Z,17.70
2018-10-05T11:16:47.071Z,17.80
2018-10-05T11:19:21.634Z,17.80
2018-10-05T11:21:53.095Z,17.80
2018-10-05T11:24:28.141Z,17.80
2018-10-05T11:26:59.504Z,17.80
2018-10-05T11:29:32.077Z,18.00
2018-10-05T11:32:04.543Z,18.00
2018-10-05T11:34:36.013Z,18.00
2018-10-05T11:37:07.672Z,18.00
2018-10-05T11:39:38.989Z,18.10
2018-10-05T11:42:11.107Z,18.00
2018-10-05T11:44:42.850Z,18.10
2018-10-05T11:47:16.011Z,18.10
2018-10-05T11:49:48.112Z,18.10
2018-10-05T11:52:20.116Z,18.10
2018-10-05T11:54:52.515Z,18.10
2018-10-05T11:57:24.089Z,18.10
2018-10-05T11:59:57.292Z,18.10
2018-10-05T12:02:28.942Z,18.10
2018-10-05T12:05:00.919Z,18.20
2018-10-05T12:07:34.189Z,18.20
2018-10-05T12:10:06.347Z,18.30
2018-10-05T12:12:39.339Z,18.30
2018-10-05T12:15:10.616Z,18.30
2018-10-05T12:17:41.533Z,18.50
2018-10-05T12:20:12.481Z,18.50
2018-10-05T12:22:43.099Z,18.60
2018-10-05T12:25:14.153Z,18.70
2018-10-05T12:27:44.960Z,18.80
2018-10-05T12:30:15.541Z,18.90
2018-10-05T12:32:45.881Z,19.00
2018-10-05T12:35:16.208Z,19.10
2018-10-05T12:37:47.711Z,19.20
2018-10-05T12:40:24.749Z,19.20
2018-10-05T12:42:55.609Z,19.30
2018-10-05T12:45:26.774Z,19.40
2018-10-05T12:47:57.802Z,19.60
2018-10-05T12:50:28.962Z,19.70
2018-10-05T12:53:16.121Z,19.80
2018-10-05T12:55:46.814Z,19.80
2018-10-05T12:58:17.834Z,19.90
2018-10-05T13:00:49.631Z,20.10
2018-10-05T13:03:20.513Z,20.20
2018-10-05T13:05:51.061Z,20.30
2018-10-05T13:08:24.104Z,20.40
2018-10-05T13:10:54.548Z,20.50
2018-10-05T13:13:24.791Z,20.60
2018-10-05T13:15:55.061Z,20.70
2018-10-05T13:18:25.792Z,20.80
2018-10-05T13:26:46.364Z,20.90
2018-10-05T13:36:09.571Z,21.30
2018-10-05T13:38:39.425Z,21.50
2018-10-05T13:41:09.583Z,21.60
2018-10-05T13:43:39.521Z,21.60
2018-10-05T13:46:09.448Z,21.80
2018-10-05T13:48:39.501Z,21.80
2018-10-05T13:51:09.428Z,21.60
2018-10-05T13:53:39.324Z,21.70
2018-10-05T13:56:09.233Z,21.70
2018-10-05T13:58:39.085Z,21.70
2018-10-05T14:01:09.313Z,21.60
2018-10-05T14:03:39.156Z,21.50
2018-10-05T14:06:09.202Z,21.50
2018-10-05T14:08:39.259Z,21.50
2018-10-05T14:11:09.192Z,21.40
2018-10-05T14:13:39.180Z,21.20
2018-10-05T14:16:09.118Z,21.20
2018-10-05T14:18:39.128Z,21.00
2018-10-05T14:21:09.165Z,20.90
2018-10-05T14:23:39.030Z,20.80
2018-10-05T14:26:09.022Z,20.70
2018-10-05T14:28:38.908Z,20.60
2018-10-05T14:31:08.965Z,20.50
2018-10-05T14:33:38.817Z,20.40
2018-10-05T14:36:08.720Z,20.30
2018-10-05T14:38:38.810Z,20.20
2018-10-05T14:41:09.055Z,20.20
2018-10-05T14:43:38.956Z,20.10
2018-10-05T14:46:08.910Z,20.10
2018-10-05T14:48:39.186Z,20.10
2018-10-05T14:51:09.588Z,20.00
2018-10-05T14:53:39.597Z,19.90
2018-10-05T14:56:09.844Z,19.90
2018-10-05T14:58:40.063Z,19.80
2018-10-05T15:01:09.998Z,19.80
2018-10-05T15:03:39.931Z,19.80
2018-10-05T15:06:10.102Z,19.70
2018-10-05T15:08:39.957Z,19.80
2018-10-05T15:11:09.898Z,19.70
2018-10-05T15:13:39.866Z,19.70
2018-10-05T15:16:09.985Z,19.60
2018-10-05T15:18:40.030Z,19.70
2018-10-05T15:21:10.079Z,19.60
2018-10-05T15:23:39.988Z,19.60
2018-10-05T15:26:10.016Z,19.50
2018-10-05T15:28:40.381Z,19.50
2018-10-05T15:31:10.668Z,19.50
2018-10-05T15:33:40.717Z,19.50
2018-10-05T15:36:10.640Z,19.40
2018-10-05T15:38:40.852Z,19.50
2018-10-05T15:41:11.214Z,19.40
2018-10-05T15:43:41.287Z,19.30
2018-10-05T15:46:12.264Z,19.30
2018-10-05T15:48:42.153Z,19.30
2018-10-05T15:51:12.058Z,19.30
2018-10-05T15:53:42.035Z,19.30
2018-10-05T15:56:11.945Z,19.20
2018-10-05T15:58:41.972Z,19.20
2018-10-05T16:01:12.130Z,19.10
2018-10-05T16:03:42.252Z,19.10
2018-10-05T16:06:12.185Z,19.10
2018-10-05T16:08:42.314Z,19.00
2018-10-05T16:11:12.217Z,19.00
2018-10-05T16:13:42.366Z,18.90
2018-10-05T16:16:12.522Z,18.90
2018-10-05T16:18:42.502Z,18.80
2018-10-05T16:21:12.699Z,18.80
2018-10-05T16:23:42.655Z,18.70
2018-10-05T16:26:12.506Z,18.70
2018-10-05T16:28:42.509Z,18.70
2018-10-05T16:31:12.961Z,18.60
2018-10-05T16:33:42.763Z,18.60
2018-10-05T16:36:12.778Z,18.50
2018-10-05T16:38:42.805Z,18.50
2018-10-05T16:41:12.692Z,18.40
2018-10-05T16:43:42.713Z,18.40
2018-10-05T16:46:12.616Z,18.40
2018-10-05T16:48:42.544Z,18.30
2018-10-05T16:51:12.401Z,18.20
2018-10-05T16:53:42.456Z,18.20
2018-10-05T16:56:12.461Z,18.10
2018-10-05T16:58:42.377Z,18.00
2018-10-05T17:01:12.350Z,18.00
2018-10-05T17:03:42.171Z,17.90
2018-10-05T17:06:12.169Z,17.80
2018-10-05T17:08:46.105Z,17.70
2018-10-05T17:11:16.353Z,17.70
2018-10-05T17:13:46.224Z,17.60
2018-10-05T17:16:17.075Z,17.50
2018-10-05T17:18:46.958Z,17.50
2018-10-05T17:21:17.234Z,17.40
2018-10-05T17:23:47.152Z,17.30
2018-10-05T17:26:17.166Z,17.20
2018-10-05T17:28:47.016Z,17.30
2018-10-05T17:31:16.919Z,17.20
2018-10-05T17:33:46.784Z,17.20
2018-10-05T17:36:16.854Z,17.10
2018-10-05T17:38:46.778Z,17.00
2018-10-05T17:41:16.935Z,16.90
2018-10-05T17:43:46.956Z,16.80
2018-10-05T17:46:16.908Z,16.70
2018-10-05T17:48:47.005Z,16.60
2018-10-05T17:51:17.067Z,16.50
2018-10-05T17:53:47.252Z,16.50
2018-10-05T17:56:17.405Z,16.50
2018-10-05T17:58:47.203Z,16.40
2018-10-05T18:01:17.278Z,16.30
2018-10-05T18:03:47.053Z,16.30
2018-10-05T18:06:17.071Z,16.20
2018-10-05T18:08:46.899Z,16.10
2018-10-05T18:11:16.917Z,16.10
2018-10-05T18:13:46.810Z,16.10
2018-10-05T18:16:16.957Z,16.10
2018-10-05T18:18:47.044Z,16.10
2018-10-05T18:21:17.033Z,16.00
2018-10-05T18:23:46.967Z,15.90
2018-10-05T18:26:17.184Z,15.80
2018-10-05T18:28:46.972Z,15.80
2018-10-05T18:31:16.837Z,15.90
2018-10-05T18:33:46.811Z,16.00
2018-10-05T18:36:17.142Z,15.90
2018-10-05T18:38:47.046Z,15.80
2018-10-05T18:41:16.925Z,15.80
2018-10-05T18:43:46.775Z,15.60
2018-10-05T18:46:16.633Z,15.60
2018-10-05T18:48:46.681Z,15.50
2018-10-05T18:51:16.766Z,15.40
2018-10-05T18:53:46.908Z,15.30
2018-10-05T18:56:33.550Z,15.30
2018-10-05T18:59:03.737Z,15.20
2018-10-05T19:01:34.175Z,15.20
2018-10-05T19:04:04.276Z,15.20
2018-10-05T19:06:34.388Z,15.20
2018-10-05T19:09:05.614Z,15.30
2018-10-05T19:11:36.638Z,15.30
2018-10-05T19:14:06.618Z,15.30
2018-10-05T19:16:36.710Z,15.20
2018-10-05T19:19:07.050Z,15.20
2018-10-05T19:21:37.315Z,15.20
2018-10-05T19:24:07.340Z,15.20
2018-10-05T19:26:37.530Z,15.20
2018-10-05T19:29:07.430Z,15.20
2018-10-05T19:31:37.454Z,15.20
2018-10-05T19:34:07.684Z,15.20
2018-10-05T19:36:37.656Z,15.20
2018-10-05T19:39:10.644Z,15.20
2018-10-05T19:41:41.525Z,15.20
2018-10-05T19:44:11.885Z,15.20
2018-10-05T19:46:42.154Z,15.20
2018-10-05T19:49:12.101Z,15.20
2018-10-05T19:51:42.057Z,15.20
2018-10-05T19:54:11.973Z,15.20
2018-10-05T19:56:41.844Z,15.30
2018-10-05T19:59:11.895Z,15.30
2018-10-05T20:01:41.757Z,15.30
2018-10-05T20:04:11.760Z,15.30
2018-10-05T20:06:41.722Z,15.30
2018-10-05T20:09:11.624Z,15.30
2018-10-05T20:11:42.219Z,15.30
2018-10-05T20:14:12.300Z,15.40
2018-10-05T20:16:42.281Z,15.40
2018-10-05T20:19:12.218Z,15.40
2018-10-05T20:21:42.085Z,15.40
2018-10-05T20:24:12.078Z,15.30
2018-10-05T20:26:42.433Z,15.30
2018-10-05T20:29:12.335Z,15.30
2018-10-05T20:31:42.291Z,15.30
2018-10-05T20:34:12.604Z,15.20
2018-10-05T20:36:42.750Z,15.20
2018-10-05T20:39:12.441Z,15.10
2018-10-05T20:41:42.378Z,15.10
2018-10-05T20:44:12.382Z,15.10
2018-10-05T20:46:42.445Z,15.00
2018-10-05T20:49:12.318Z,15.00
2018-10-05T20:51:42.387Z,15.00
2018-10-05T20:54:12.496Z,14.90
2018-10-05T20:56:42.636Z,14.90
2018-10-05T20:59:12.760Z,14.90
2018-10-05T21:01:42.781Z,14.90
2018-10-05T21:04:12.801Z,14.90
2018-10-05T21:06:43.226Z,14.90
2018-10-05T21:09:13.293Z,14.90
2018-10-05T21:11:43.408Z,14.80
2018-10-05T21:14:13.374Z,14.90
2018-10-05T21:16:43.270Z,14.80
2018-10-05T21:19:13.235Z,14.90
2018-10-05T21:21:43.198Z,14.80
2018-10-05T21:24:13.145Z,14.80
2018-10-05T21:26:43.165Z,14.90
2018-10-05T21:29:12.933Z,14.80
2018-10-05T21:31:43.041Z,14.80
2018-10-05T21:34:12.915Z,14.80
2018-10-05T21:36:42.781Z,14.70
2018-10-05T21:39:12.785Z,14.70
2018-10-05T21:41:42.606Z,14.70
2018-10-05T21:44:12.663Z,14.70
2018-10-05T21:46:42.604Z,14.60
2018-10-05T21:49:12.613Z,14.60
2018-10-05T21:51:42.643Z,14.50
2018-10-05T21:54:12.720Z,14.50
2018-10-05T21:56:42.698Z,14.50
2018-10-05T21:59:12.627Z,14.50
2018-10-05T22:01:42.448Z,14.50
2018-10-05T22:04:12.656Z,14.50
2018-10-05T22:06:42.868Z,14.50
2018-10-05T22:09:12.971Z,14.40
2018-10-05T22:11:43.141Z,14.40
2018-10-05T22:14:13.339Z,14.40
2018-10-05T22:16:43.329Z,14.40
2018-10-05T22:19:13.337Z,14.40
2018-10-05T22:21:43.289Z,14.40
2018-10-05T22:24:13.216Z,14.30
2018-10-05T22:26:43.204Z,14.30
2018-10-05T22:29:13.014Z,14.30
2018-10-05T22:31:43.046Z,14.30
2018-10-05T22:34:12.923Z,14.30
2018-10-05T22:36:42.871Z,14.30
2018-10-05T22:39:12.785Z,14.30
2018-10-05T22:41:42.656Z,14.20
2018-10-05T22:44:12.743Z,14.20
2018-10-05T22:46:42.646Z,14.20
2018-10-05T22:49:12.449Z,14.20
2018-10-05T22:51:42.221Z,14.20
2018-10-05T22:54:12.140Z,14.10
2018-10-05T22:56:42.108Z,14.10
2018-10-05T22:59:11.979Z,14.10
2018-10-05T23:01:41.829Z,14.10
2018-10-05T23:04:11.915Z,14.10
2018-10-05T23:06:42.053Z,14.00
2018-10-05T23:09:12.290Z,14.10
2018-10-05T23:11:42.206Z,14.00
2018-10-05T23:14:12.161Z,14.00
2018-10-05T23:16:42.048Z,14.00
2018-10-05T23:19:11.942Z,14.00
2018-10-05T23:21:41.890Z,13.90
2018-10-05T23:24:11.767Z,13.90
2018-10-05T23:26:41.856Z,13.90
2018-10-05T23:29:11.662Z,13.90
2018-10-05T23:31:41.521Z,13.90
2018-10-05T23:34:11.523Z,13.80
2018-10-05T23:36:41.589Z,13.80
2018-10-05T23:39:12.096Z,13.80
2018-10-05T23:41:41.931Z,13.80
2018-10-05T23:44:12.019Z,13.70
2018-10-05T23:46:41.909Z,13.80
2018-10-05T23:49:11.792Z,13.70
2018-10-05T23:51:41.646Z,13.70
2018-10-05T23:54:11.782Z,13.70
2018-10-05T23:56:41.677Z,13.70
2018-10-05T23:59:11.447Z,13.60
